createdAt,value
2023-03-27T00:02:06.307Z,101063.69
2023-03-27T00:04:32.912Z,101069.03
2023-03-27T00:06:59.608Z,101071.03
2023-03-27T00:09:28.425Z,101072.19
2023-03-27T00:11:56.416Z,101069.72
2023-03-27T00:14:24.080Z,101066.66
2023-03-27T00:16:51.466Z,101079.72
2023-03-27T00:19:19.165Z,101085.88
2023-03-27T00:21:46.177Z,101081.78
2023-03-27T00:24:12.918Z,101090.50
2023-03-27T00:26:40.810Z,101097.63
2023-03-27T00:29:08.673Z,101101.22
2023-03-27T00:31:35.722Z,101111.56
2023-03-27T00:34:03.605Z,101114.34
2023-03-27T00:36:31.454Z,101111.09
2023-03-27T00:38:58.038Z,101118.03
2023-03-27T00:41:26.000Z,101117.34
2023-03-27T00:43:54.700Z,101119.19
2023-03-27T00:46:27.844Z,101116.75
2023-03-27T00:48:57.301Z,101118.59
2023-03-27T00:51:26.625Z,101112.78
2023-03-27T00:53:55.578Z,101112.03
2023-03-27T00:56:23.670Z,101111.34
2023-03-27T00:58:55.954Z,101127.66
2023-03-27T01:01:25.559Z,101121.81
2023-03-27T01:03:53.864Z,101138.91
2023-03-27T01:06:22.347Z,101144.94
2023-03-27T01:08:49.140Z,101148.66
2023-03-27T01:11:16.065Z,101142.84
2023-03-27T01:14:00.984Z,101144.56
2023-03-27T01:17:17.405Z,101152.25
2023-03-27T01:19:55.979Z,101150.63
2023-03-27T01:22:48.906Z,101154.22
2023-03-27T01:25:52.703Z,101153.41
2023-03-27T01:28:54.883Z,101154.41
2023-03-27T01:31:30.679Z,101163.00
2023-03-27T01:34:32.070Z,101168.38
2023-03-27T01:37:06.597Z,101170.09
2023-03-27T01:39:48.429Z,101177.78
2023-03-27T01:42:38.608Z,101165.88
2023-03-27T01:45:13.967Z,101174.50
2023-03-27T01:47:40.921Z,101182.19
2023-03-27T01:50:10.964Z,101189.06
2023-03-27T01:52:42.100Z,101188.22
2023-03-27T01:55:19.319Z,101194.28
2023-03-27T01:57:52.082Z,101180.78
2023-03-27T02:00:22.756Z,101189.38
2023-03-27T02:03:20.803Z,101186.91
2023-03-27T02:05:57.046Z,101196.44
2023-03-27T02:08:37.749Z,101201.66
2023-03-27T02:11:04.762Z,101200.13
2023-03-27T02:13:40.929Z,101204.41
2023-03-27T02:16:12.052Z,101207.09
2023-03-27T02:18:47.724Z,101214.75
2023-03-27T02:21:15.870Z,101213.22
2023-03-27T02:23:43.589Z,101212.31
2023-03-27T02:26:13.236Z,101222.63
2023-03-27T02:28:48.754Z,101226.97
2023-03-27T02:31:43.171Z,101229.53
2023-03-27T02:34:29.140Z,101225.31
2023-03-27T02:37:05.236Z,101237.41
2023-03-27T02:39:41.102Z,101239.25
2023-03-27T02:42:24.206Z,101247.81
2023-03-27T02:44:55.380Z,101254.78
2023-03-27T02:47:51.895Z,101250.69
2023-03-27T02:50:25.176Z,101255.91
2023-03-27T02:52:56.691Z,101249.16
2023-03-27T02:55:38.282Z,101254.28
2023-03-27T02:58:17.104Z,101251.81
2023-03-27T03:00:50.766Z,101258.69
2023-03-27T03:03:38.802Z,101266.47
2023-03-27T03:06:07.093Z,101270.75
2023-03-27T03:08:38.358Z,101275.03
2023-03-27T03:11:10.103Z,101276.69
2023-03-27T03:13:39.135Z,101277.53
2023-03-27T03:16:06.400Z,101285.91
2023-03-27T03:18:33.038Z,101291.84
2023-03-27T03:21:00.165Z,101291.84
2023-03-27T03:23:27.144Z,101290.09
2023-03-27T03:25:57.045Z,101291.03
2023-03-27T03:28:27.257Z,101292.75
2023-03-27T03:30:55.065Z,101294.50
2023-03-27T03:33:22.002Z,101301.34
2023-03-27T03:35:50.503Z,101297.16
2023-03-27T03:38:25.249Z,101300.56
2023-03-27T03:40:54.245Z,101315.97
2023-03-27T03:43:22.226Z,101307.41
2023-03-27T03:45:49.685Z,101313.44
2023-03-27T03:48:17.064Z,101316.94
2023-03-27T03:50:45.775Z,101311.81
2023-03-27T03:53:13.620Z,101307.59
2023-03-27T03:55:40.587Z,101325.63
2023-03-27T03:58:07.231Z,101329.06
2023-03-27T04:00:38.118Z,101323.16
2023-03-27T04:03:07.480Z,101333.28
2023-03-27T04:05:36.259Z,101336.69
2023-03-27T04:08:07.099Z,101339.22
2023-03-27T04:10:34.789Z,101351.00
2023-03-27T04:13:01.446Z,101339.94
2023-03-27T04:15:28.052Z,101350.91
2023-03-27T04:17:54.793Z,101357.56
2023-03-27T04:20:21.473Z,101346.31
2023-03-27T04:22:49.156Z,101349.59
2023-03-27T04:25:17.490Z,101349.59
2023-03-27T04:27:45.059Z,101351.31
2023-03-27T04:30:15.949Z,101370.16
2023-03-27T04:32:43.740Z,101368.72
2023-03-27T04:35:13.407Z,101374.94
2023-03-27T04:37:43.477Z,101381.19
2023-03-27T04:40:13.284Z,101395.00
2023-03-27T04:42:42.578Z,101396.91
2023-03-27T04:45:23.352Z,101402.97
2023-03-27T04:47:50.190Z,101401.22
2023-03-27T04:50:17.764Z,101410.63
2023-03-27T04:52:44.844Z,101410.34
2023-03-27T04:55:12.419Z,101407.59
2023-03-27T04:57:39.751Z,101405.66
2023-03-27T05:00:16.688Z,101408.63
2023-03-27T05:02:43.331Z,101412.63
2023-03-27T05:05:10.236Z,101411.56
2023-03-27T05:07:37.503Z,101425.06
2023-03-27T05:10:05.729Z,101420.78
2023-03-27T05:12:33.048Z,101425.69
2023-03-27T05:15:00.687Z,101435.84
2023-03-27T05:17:27.441Z,101425.78
2023-03-27T05:19:54.093Z,101421.69
2023-03-27T05:22:21.268Z,101432.09
2023-03-27T05:24:47.909Z,101434.88
2023-03-27T05:27:15.372Z,101435.06
2023-03-27T05:29:46.846Z,101440.38
2023-03-27T05:32:14.694Z,101444.88
2023-03-27T05:34:43.483Z,101450.06
2023-03-27T05:37:10.157Z,101445.06
2023-03-27T05:39:37.017Z,101448.44
2023-03-27T05:42:04.207Z,101457.84
2023-03-27T05:44:31.145Z,101456.13
2023-03-27T05:46:59.369Z,101456.84
2023-03-27T05:49:25.953Z,101456.44
2023-03-27T05:51:52.703Z,101458.13
2023-03-27T05:54:19.252Z,101457.56
2023-03-27T05:56:46.680Z,101456.88
2023-03-27T05:59:13.340Z,101460.38
2023-03-27T06:01:40.349Z,101467.06
2023-03-27T06:04:09.257Z,101472.19
2023-03-27T06:06:36.225Z,101473.09
2023-03-27T06:09:03.818Z,101483.28
2023-03-27T06:11:30.858Z,101482.28
2023-03-27T06:13:58.713Z,101479.31
2023-03-27T06:16:25.903Z,101481.47
2023-03-27T06:18:53.167Z,101485.97
2023-03-27T06:21:19.938Z,101485.38
2023-03-27T06:23:47.783Z,101497.03
2023-03-27T06:26:15.711Z,101497.25
2023-03-27T06:28:42.623Z,101496.78
2023-03-27T06:31:09.430Z,101500.88
2023-03-27T06:33:36.222Z,101512.75
2023-03-27T06:36:03.072Z,101506.63
2023-03-27T06:38:31.562Z,101504.72
2023-03-27T06:40:59.939Z,101513.53
2023-03-27T06:43:26.605Z,101517.63
2023-03-27T06:45:54.260Z,101518.00
2023-03-27T06:48:22.576Z,101520.06
2023-03-27T06:50:51.679Z,101526.66
2023-03-27T06:53:27.389Z,101531.91
2023-03-27T06:55:55.843Z,101531.69
2023-03-27T06:58:23.508Z,101537.81
2023-03-27T07:00:51.326Z,101538.84
2023-03-27T07:03:20.199Z,101547.28
2023-03-27T07:05:48.066Z,101543.38
2023-03-27T07:10:53.706Z,101549.44
2023-03-27T07:13:27.235Z,101562.09
2023-03-27T07:15:54.996Z,101556.03
2023-03-27T07:18:22.765Z,101565.13
2023-03-27T07:20:50.425Z,101567.00
2023-03-27T07:23:17.620Z,101568.41
2023-03-27T07:25:44.261Z,101575.53
2023-03-27T07:28:16.783Z,101575.41
2023-03-27T07:30:43.452Z,101581.84
2023-03-27T07:33:10.622Z,101578.19
2023-03-27T07:35:50.943Z,101580.84
2023-03-27T07:38:18.359Z,101584.94
2023-03-27T07:40:46.632Z,101585.75
2023-03-27T07:43:13.766Z,101586.56
2023-03-27T07:45:41.672Z,101588.78
2023-03-27T07:48:12.204Z,101588.25
2023-03-27T07:50:39.138Z,101598.63
2023-03-27T07:53:09.319Z,101595.75
2023-03-27T07:55:37.906Z,101594.38
2023-03-27T07:58:06.852Z,101598.88
2023-03-27T08:00:36.004Z,101603.50
2023-03-27T08:03:07.793Z,101601.75
2023-03-27T08:05:35.324Z,101601.59
2023-03-27T08:08:02.038Z,101609.91
2023-03-27T08:10:28.788Z,101601.31
2023-03-27T08:12:55.751Z,101602.00
2023-03-27T08:15:25.154Z,101608.63
2023-03-27T08:17:55.212Z,101615.22
2023-03-27T08:20:23.999Z,101612.03
2023-03-27T08:22:52.869Z,101613.25
2023-03-27T08:25:22.646Z,101607.50
2023-03-27T08:27:49.629Z,101610.09
2023-03-27T08:30:17.509Z,101605.31
2023-03-27T08:32:44.981Z,101601.59
2023-03-27T08:35:12.282Z,101606.44
2023-03-27T08:37:39.092Z,101606.19
2023-03-27T08:40:13.163Z,101602.78
2023-03-27T08:42:44.194Z,101606.19
2023-03-27T08:45:19.192Z,101612.03
2023-03-27T08:48:02.616Z,101619.69
2023-03-27T08:50:38.625Z,101618.34
2023-03-27T08:53:11.389Z,101622.03
2023-03-27T08:55:44.604Z,101629.69
2023-03-27T08:58:21.245Z,101633.53
2023-03-27T09:00:54.037Z,101638.41
2023-03-27T09:03:38.984Z,101640.03
2023-03-27T09:06:34.222Z,101647.78
2023-03-27T09:09:10.832Z,101642.13
2023-03-27T09:11:57.785Z,101649.72
2023-03-27T09:14:35.499Z,101653.63
2023-03-27T09:17:16.233Z,101648.38
2023-03-27T09:19:53.169Z,101652.03
2023-03-27T09:22:31.298Z,101653.78
2023-03-27T09:25:02.627Z,101658.25
2023-03-27T09:27:35.169Z,101660.44
2023-03-27T09:30:26.522Z,101662.50
2023-03-27T09:32:57.974Z,101677.88
2023-03-27T09:35:24.957Z,101661.09
2023-03-27T09:38:03.968Z,101671.03
2023-03-27T09:40:41.450Z,101664.44
2023-03-27T09:43:14.209Z,101668.75
2023-03-27T09:45:42.022Z,101676.72
2023-03-27T09:48:34.835Z,101665.94
2023-03-27T09:51:02.423Z,101669.91
2023-03-27T09:53:29.043Z,101667.16
2023-03-27T09:56:01.729Z,101666.47
2023-03-27T09:58:30.079Z,101672.44
2023-03-27T10:01:08.610Z,101675.09
2023-03-27T10:03:54.269Z,101685.75
2023-03-27T10:06:30.260Z,101681.47
2023-03-27T10:09:01.157Z,101689.84
2023-03-27T10:11:39.001Z,101701.53
2023-03-27T10:14:16.880Z,101695.34
2023-03-27T10:16:46.263Z,101707.88
2023-03-27T10:19:36.380Z,101699.53
2023-03-27T10:22:32.038Z,101711.50
2023-03-27T10:25:01.517Z,101709.53
2023-03-27T10:27:32.432Z,101714.94
2023-03-27T10:29:59.125Z,101722.81
2023-03-27T10:32:53.030Z,101766.16
2023-03-27T10:35:22.968Z,101762.53
2023-03-27T10:37:51.436Z,101789.88
2023-03-27T10:40:20.714Z,101781.97
2023-03-27T10:42:48.856Z,101766.81
2023-03-27T10:45:21.999Z,101761.00
2023-03-27T10:47:52.652Z,101743.31
2023-03-27T10:50:42.027Z,101763.56
2023-03-27T10:53:20.658Z,101761.72
2023-03-27T10:56:01.776Z,101760.06
2023-03-27T10:58:33.898Z,101760.56
2023-03-27T11:01:15.126Z,101768.00
2023-03-27T11:03:55.706Z,101776.91
2023-03-27T11:06:29.423Z,101781.84
2023-03-27T11:09:05.734Z,101774.59
2023-03-27T11:11:32.353Z,101777.75
2023-03-27T11:14:03.839Z,101766.97
2023-03-27T11:16:39.775Z,101766.84
2023-03-27T11:19:31.412Z,101762.84
2023-03-27T11:22:04.590Z,101756.69
2023-03-27T11:24:50.367Z,101754.56
2023-03-27T11:27:17.118Z,101760.06
2023-03-27T11:30:27.713Z,101770.09
2023-03-27T11:33:25.707Z,101766.25
2023-03-27T11:36:04.453Z,101767.66
2023-03-27T11:38:37.249Z,101767.56
2023-03-27T11:41:04.023Z,101771.22
2023-03-27T11:43:31.312Z,101770.75
2023-03-27T11:46:15.918Z,101773.88
2023-03-27T11:48:56.795Z,101787.84
2023-03-27T11:51:55.057Z,101795.03
2023-03-27T11:54:55.428Z,101796.34
2023-03-27T11:57:25.845Z,101805.50
2023-03-27T12:00:09.530Z,101794.53
2023-03-27T12:03:10.382Z,101789.81
2023-03-27T12:06:30.511Z,101790.44
2023-03-27T12:09:00.300Z,101793.59
2023-03-27T12:11:29.685Z,101796.88
2023-03-27T12:14:18.606Z,101792.06
2023-03-27T12:17:23.605Z,101785.59
2023-03-27T12:20:41.593Z,101789.53
2023-03-27T12:23:52.294Z,101778.78
2023-03-27T12:26:33.434Z,101783.19
2023-03-27T12:29:23.758Z,101783.56
2023-03-27T12:32:08.425Z,101781.09
2023-03-27T12:34:44.075Z,101783.44
2023-03-27T12:37:12.861Z,101786.28
2023-03-27T12:39:51.919Z,101778.78
2023-03-27T12:42:43.909Z,101776.38
2023-03-27T12:45:21.215Z,101778.16
2023-03-27T12:48:06.540Z,101771.69
2023-03-27T12:50:51.720Z,101773.59
2023-03-27T12:53:27.363Z,101776.91
2023-03-27T12:56:19.496Z,101806.25
2023-03-27T12:58:51.749Z,101822.06
2023-03-27T13:01:51.665Z,101838.88
2023-03-27T13:04:38.335Z,101865.56
2023-03-27T13:07:22.915Z,101863.09
2023-03-27T13:10:18.423Z,101853.81
2023-03-27T13:13:22.428Z,101853.72
2023-03-27T13:16:14.132Z,101841.72
2023-03-27T13:18:52.691Z,101833.72
2023-03-27T13:21:43.927Z,101834.78
2023-03-27T13:24:16.299Z,101823.69
2023-03-27T13:26:59.181Z,101820.19
2023-03-27T13:29:31.722Z,101819.84
2023-03-27T13:32:03.205Z,101819.50
2023-03-27T13:34:39.604Z,101817.84
2023-03-27T13:37:12.003Z,101818.06
2023-03-27T13:40:01.583Z,101823.97
2023-03-27T13:42:34.780Z,101815.44
2023-03-27T13:45:21.455Z,101867.53
2023-03-27T13:48:09.715Z,101867.28
2023-03-27T13:51:31.981Z,101840.72
2023-03-27T13:54:37.330Z,101846.69
2023-03-27T13:57:22.796Z,101832.59
2023-03-27T14:00:15.724Z,101843.75
2023-03-27T14:03:00.976Z,101845.63
2023-03-27T14:06:02.256Z,101840.13
2023-03-27T14:08:51.003Z,101842.94
2023-03-27T14:11:34.685Z,101837.69
2023-03-27T14:14:32.071Z,101844.84
2023-03-27T14:17:24.504Z,101826.41
2023-03-27T14:19:51.077Z,101827.06
2023-03-27T14:22:59.559Z,101829.78
2023-03-27T14:25:36.630Z,101832.69
2023-03-27T14:28:03.433Z,101835.16
2023-03-27T14:30:42.634Z,101849.56
2023-03-27T14:33:10.247Z,101841.78
2023-03-27T14:35:41.203Z,101844.47
2023-03-27T14:38:26.082Z,101837.06
2023-03-27T14:41:07.852Z,101844.97
2023-03-27T14:43:34.448Z,101838.97
2023-03-27T14:46:07.415Z,101836.00
2023-03-27T14:48:39.665Z,101843.41
2023-03-27T14:51:09.665Z,101832.69
2023-03-27T14:53:44.083Z,101840.72
2023-03-27T14:56:30.794Z,101849.16
2023-03-27T14:59:03.745Z,101845.59
2023-03-27T15:01:35.080Z,101895.94
2023-03-27T15:04:03.429Z,101899.06
2023-03-27T15:06:36.327Z,101915.31
2023-03-27T15:09:05.694Z,101897.38
2023-03-27T15:11:40.105Z,101893.81
2023-03-27T15:14:15.642Z,101888.38
2023-03-27T15:16:53.417Z,101888.69
2023-03-27T15:19:23.976Z,101896.75
2023-03-27T15:22:00.474Z,101894.72
2023-03-27T15:24:33.168Z,101886.41
2023-03-27T15:27:04.689Z,101884.53
2023-03-27T15:29:43.889Z,101894.72
2023-03-27T15:32:14.915Z,101892.97
2023-03-27T15:34:49.224Z,101892.13
2023-03-27T15:37:24.694Z,101887.13
2023-03-27T15:40:36.848Z,101886.25
2023-03-27T15:43:12.547Z,101888.63
2023-03-27T15:45:55.362Z,101897.69
2023-03-27T15:48:31.866Z,101913.31
2023-03-27T15:51:03.227Z,101920.94
2023-03-27T15:53:38.755Z,101920.69
2023-03-27T15:56:15.115Z,101919.94
2023-03-27T15:58:44.536Z,101922.72
2023-03-27T16:01:18.268Z,101921.50
2023-03-27T16:03:45.730Z,101926.50
2023-03-27T16:06:22.657Z,101937.84
2023-03-27T16:08:49.521Z,101943.34
2023-03-27T16:11:34.242Z,101940.31
2023-03-27T16:14:01.309Z,101946.25
2023-03-27T16:16:30.746Z,101948.94
2023-03-27T16:19:12.330Z,101949.16
2023-03-27T16:21:52.866Z,101953.59
2023-03-27T16:24:19.510Z,101959.91
2023-03-27T16:26:46.153Z,101968.69
2023-03-27T16:29:14.251Z,101972.22
2023-03-27T16:31:41.890Z,101965.41
2023-03-27T16:34:22.337Z,101961.16
2023-03-27T16:36:50.126Z,101964.69
2023-03-27T16:39:17.276Z,101964.47
2023-03-27T16:41:43.929Z,101962.69
2023-03-27T16:44:10.833Z,101966.31
2023-03-27T16:46:37.709Z,101971.47
2023-03-27T16:49:04.544Z,101970.03
2023-03-27T16:51:31.652Z,101972.75
2023-03-27T16:53:58.231Z,101971.19
2023-03-27T16:56:24.850Z,101973.97
2023-03-27T16:58:51.498Z,101981.13
2023-03-27T17:01:18.094Z,101980.41
2023-03-27T17:03:44.742Z,101987.19
2023-03-27T17:06:12.818Z,101982.28
2023-03-27T17:08:39.569Z,101980.72
2023-03-27T17:11:11.958Z,101991.22
2023-03-27T17:13:42.490Z,101991.44
2023-03-27T17:16:10.251Z,101996.00
2023-03-27T17:18:37.012Z,101989.25
2023-03-27T17:21:03.876Z,102000.47
2023-03-27T17:23:31.696Z,102001.63
2023-03-27T17:26:02.820Z,102006.78
2023-03-27T17:28:31.534Z,102006.78
2023-03-27T17:31:04.537Z,102001.63
2023-03-27T17:33:32.565Z,102014.63
2023-03-27T17:35:59.314Z,102024.19
2023-03-27T17:38:26.566Z,102010.69
2023-03-27T17:40:53.316Z,102033.16
2023-03-27T17:43:19.928Z,102030.78
2023-03-27T17:45:47.958Z,102035.13
2023-03-27T17:48:14.584Z,102040.34
2023-03-27T17:50:41.388Z,102044.91
2023-03-27T17:53:08.048Z,102042.63
2023-03-27T17:55:37.298Z,102048.09
2023-03-27T17:58:09.266Z,102044.06
2023-03-27T18:00:37.589Z,102043.56
2023-03-27T18:03:04.910Z,102053.03
2023-03-27T18:05:37.709Z,102056.63
2023-03-27T18:08:05.094Z,102060.22
2023-03-27T18:10:33.544Z,102057.63
2023-03-27T18:13:01.677Z,102058.47
2023-03-27T18:15:28.413Z,102063.81
2023-03-27T18:17:55.169Z,102065.78
2023-03-27T18:20:21.765Z,102063.38
2023-03-27T18:22:48.468Z,102074.81
2023-03-27T18:25:15.051Z,102074.19
2023-03-27T18:27:41.956Z,102076.22
2023-03-27T18:30:14.613Z,102082.50
2023-03-27T18:32:43.695Z,102089.78
2023-03-27T18:35:14.027Z,102089.25
2023-03-27T18:37:41.809Z,102089.44
2023-03-27T18:40:11.318Z,102089.66
2023-03-27T18:42:40.288Z,102095.91
2023-03-27T18:45:08.663Z,102100.41
2023-03-27T18:47:36.773Z,102095.66
2023-03-27T18:50:07.297Z,102097.50
2023-03-27T18:52:33.892Z,102102.00
2023-03-27T18:55:00.680Z,102109.00
2023-03-27T18:57:27.607Z,102101.47
2023-03-27T18:59:55.304Z,102104.25
2023-03-27T19:02:22.611Z,102107.91
2023-03-27T19:04:49.248Z,102111.59
2023-03-27T19:07:16.805Z,102107.47
2023-03-27T19:09:43.630Z,102114.28
2023-03-27T19:12:11.130Z,102112.81
2023-03-27T19:14:37.799Z,102118.03
2023-03-27T19:17:05.067Z,102113.91
2023-03-27T19:19:32.191Z,102108.88
2023-03-27T19:21:58.843Z,102116.69
2023-03-27T19:24:25.831Z,102115.13
2023-03-27T19:26:52.987Z,102121.25
2023-03-27T19:29:20.280Z,102124.94
2023-03-27T19:31:46.921Z,102121.63
2023-03-27T19:34:13.937Z,102114.03
2023-03-27T19:36:40.631Z,102118.59
2023-03-27T19:39:07.277Z,102127.41
2023-03-27T19:41:33.976Z,102122.56
2023-03-27T19:44:00.771Z,102126.88
2023-03-27T19:46:29.164Z,102127.03
2023-03-27T19:48:56.204Z,102123.94
2023-03-27T19:51:22.962Z,102124.13
2023-03-27T19:53:49.741Z,102129.34
2023-03-27T19:56:17.038Z,102131.19
2023-03-27T19:58:43.635Z,102130.53
2023-03-27T20:01:10.473Z,102133.28
2023-03-27T20:03:38.577Z,102136.84
2023-03-27T20:06:13.328Z,102132.66
2023-03-27T20:08:42.373Z,102138.88
2023-03-27T20:11:09.342Z,102134.81
2023-03-27T20:13:48.977Z,102139.31
2023-03-27T20:16:23.534Z,102139.59
2023-03-27T20:18:55.199Z,102138.03
2023-03-27T20:21:24.621Z,102134.00
2023-03-27T20:23:53.862Z,102139.28
2023-03-27T20:26:22.514Z,102143.78
2023-03-27T20:28:52.699Z,102146.53
2023-03-27T20:31:20.112Z,102148.34
2023-03-27T20:33:47.559Z,102145.06
2023-03-27T20:36:14.356Z,102146.13
2023-03-27T20:38:40.990Z,102142.81
2023-03-27T20:41:07.635Z,102142.91
2023-03-27T20:43:38.570Z,102146.38
2023-03-27T20:46:05.566Z,102156.75
2023-03-27T20:48:41.773Z,102156.09
2023-03-27T20:51:16.177Z,102163.03
2023-03-27T20:53:45.175Z,102155.59
2023-03-27T20:56:14.268Z,102156.59
2023-03-27T20:58:42.596Z,102150.72
2023-03-27T21:01:10.857Z,102156.84
2023-03-27T21:03:40.196Z,102162.22
2023-03-27T21:06:08.834Z,102157.34
2023-03-27T21:08:35.870Z,102156.56
2023-03-27T21:11:03.190Z,102163.47
2023-03-27T21:13:30.646Z,102159.44
2023-03-27T21:15:58.211Z,102156.13
2023-03-27T21:18:25.515Z,102157.97
2023-03-27T21:20:52.593Z,102164.09
2023-03-27T21:23:19.833Z,102170.19
2023-03-27T21:25:46.490Z,102176.50
2023-03-27T21:28:13.232Z,102175.75
2023-03-27T21:30:46.823Z,102178.41
2023-03-27T21:33:16.495Z,102175.09
2023-03-27T21:35:46.161Z,102170.81
2023-03-27T21:38:15.664Z,102174.44
2023-03-27T21:40:42.985Z,102172.94
2023-03-27T21:43:09.766Z,102179.00
2023-03-27T21:45:37.270Z,102185.16
2023-03-27T21:48:04.234Z,102182.69
2023-03-27T21:50:30.996Z,102178.50
2023-03-27T21:52:57.711Z,102181.06
2023-03-27T21:55:24.325Z,102180.28
2023-03-27T21:57:52.298Z,102183.03
2023-03-27T22:00:19.620Z,102185.75
2023-03-27T22:02:47.321Z,102187.56
2023-03-27T22:05:14.056Z,102182.53
2023-03-27T22:07:40.991Z,102194.56
2023-03-27T22:10:08.242Z,102189.53
2023-03-27T22:12:38.326Z,102194.75
2023-03-27T22:15:07.135Z,102194.81
2023-03-27T22:17:37.607Z,102187.22
2023-03-27T22:20:06.021Z,102198.28
2023-03-27T22:22:34.805Z,102193.31
2023-03-27T22:25:01.452Z,102193.47
2023-03-27T22:27:28.637Z,102199.66
2023-03-27T22:29:55.296Z,102197.19
2023-03-27T22:32:22.932Z,102193.91
2023-03-27T22:34:49.903Z,102198.09
2023-03-27T22:37:17.583Z,102197.53
2023-03-27T22:39:44.378Z,102194.06
2023-03-27T22:42:11.050Z,102214.63
2023-03-27T22:44:37.877Z,102212.13
2023-03-27T22:47:04.555Z,102207.84
2023-03-27T22:49:31.432Z,102211.38
2023-03-27T22:51:58.019Z,102216.59
2023-03-27T22:54:24.706Z,102211.56
2023-03-27T22:56:51.519Z,102219.28
2023-03-27T22:59:18.147Z,102222.03
2023-03-27T23:01:44.928Z,102224.59
2023-03-27T23:04:11.664Z,102219.47
2023-03-27T23:06:39.105Z,102216.06
2023-03-27T23:09:05.706Z,102221.19
2023-03-27T23:11:32.280Z,102225.47
2023-03-27T23:13:58.843Z,102229.72
2023-03-27T23:16:25.710Z,102222.09
2023-03-27T23:18:52.319Z,102219.69
2023-03-27T23:21:19.059Z,102224.88
2023-03-27T23:23:45.787Z,102229.16
2023-03-27T23:26:12.924Z,102233.53
2023-03-27T23:28:41.616Z,102248.06
2023-03-27T23:31:12.267Z,102231.91
2023-03-27T23:33:41.641Z,102242.16
2023-03-27T23:36:11.374Z,102234.53
2023-03-27T23:38:38.838Z,102244.00
2023-03-27T23:41:07.188Z,102244.09
2023-03-27T23:43:34.875Z,102249.31
2023-03-27T23:46:02.089Z,102254.56
2023-03-27T23:48:30.476Z,102253.81
2023-03-27T23:50:58.167Z,102262.34
2023-03-27T23:53:27.196Z,102249.59
2023-03-27T23:55:56.264Z,102258.25
2023-03-27T23:58:24.331Z,102266.00
